Bearsdale, Illinois
Current Conditions -  °F | °C
As of 2:08 PM on Sunday 25 Jan 2015 (Local Time) from KDEC Reporting Station
Haze Haze  
Wind Chill: -4°   Ceiling: 500
Heat Index:   Visibility: 3mi
Dew Point:   Wind: 22mph
Humidity: 93%   Direction: 20°NNE
Pressure: 29.64"   Gusts: 26mph
Location:  39.9062°N, 88.9645°W
Report Text: KDEC 252008Z 02019G23KT 3SM BR OVC005 02/01 A2964 RMK AO2 T00220011
Loading
Personal Weather Stations






























Interactive Weather Map New forecast layout! Learn more

10-Day Weather Forecast

Advertisements
Track Severe Weather on mobile